Time;durP1;ratioP1;P1;durP2;ratioP2;P2;SDS_P1;SDS_P2;PMS_P1;PMS_P2;Temp;Humidity;BMP_temperature;BMP_pressure;BME280_temperature;BME280_humidity;BME280_pressure;Samples;Min_cycle;Max_cycle;Signal;HPM_P1;HPM_P2
2021/05/07 00:01:11;;;;;;;2.47;2.37;;;8.30;99.90;;;8.99;95.53;96975.16;5206069;28;20237;-60
2021/05/07 00:03:44;;;;;;;2.17;2.07;;;8.20;99.90;;;8.98;96.36;96986.13;5206301;28;20228;-60
2021/05/07 00:06:16;;;;;;;2.23;2.13;;;8.20;99.90;;;9.01;96.60;96987.16;5205923;28;20224;-60
2021/05/07 00:08:48;;;;;;;2.53;2.43;;;8.20;99.90;;;8.96;96.28;96993.72;5206394;28;20200;-62
2021/05/07 00:11:20;;;;;;;2.50;2.40;;;8.20;99.90;;;9.03;96.79;96992.31;5205744;28;20202;-59
2021/05/07 00:13:54;;;;;;;2.40;2.30;;;8.10;99.90;;;9.08;95.32;96997.66;5205589;28;20296;-60
2021/05/07 00:16:27;;;;;;;2.70;2.60;;;8.20;99.90;;;8.98;93.52;97001.41;5205493;28;20231;-59
2021/05/07 00:19:00;;;;;;;2.43;2.33;;;8.10;99.90;;;8.97;95.74;96998.00;5196772;28;20201;-61
2021/05/07 00:21:42;;;;;;;2.40;2.30;;;8.20;99.90;;;9.01;96.52;97001.56;5205201;28;20208;-60
2021/05/07 00:24:14;;;;;;;2.60;2.50;;;8.10;99.90;;;8.97;96.31;97000.53;5205419;28;20222;-60
2021/05/07 00:26:47;;;;;;;2.40;2.30;;;8.20;99.90;;;8.96;96.59;96998.81;5205696;28;20765;-61
2021/05/07 00:29:19;;;;;;;2.50;2.40;;;8.10;99.90;;;8.95;97.25;97002.13;5205824;28;20202;-61
2021/05/07 00:31:50;;;;;;;2.30;2.20;;;8.10;99.90;;;8.90;95.67;96997.59;5205478;28;20194;-60
2021/05/07 00:34:23;;;;;;;2.40;2.30;;;8.10;99.90;;;8.89;95.68;96996.75;5205346;28;20194;-61
2021/05/07 00:36:55;;;;;;;2.27;2.17;;;8.10;99.90;;;8.93;95.74;97006.31;5204172;28;20685;-60
2021/05/07 00:39:27;;;;;;;2.10;2.00;;;8.10;99.90;;;8.88;93.80;97005.19;5205508;28;20200;-60
2021/05/07 00:42:03;;;;;;;2.40;2.30;;;8.00;99.90;;;8.95;93.21;97003.81;5205397;28;20579;-60
2021/05/07 00:44:35;;;;;;;2.20;2.10;;;8.10;99.90;;;8.86;92.62;97018.66;5204148;28;20225;-62
2021/05/07 00:47:07;;;;;;;2.43;2.33;;;8.00;99.90;;;8.86;94.94;97005.91;5205215;28;20213;-62
2021/05/07 00:49:41;;;;;;;2.70;2.60;;;8.00;99.90;;;8.90;94.58;97008.69;5205301;28;20217;-59
2021/05/07 00:52:13;;;;;;;2.67;2.57;;;8.00;99.90;;;8.93;94.54;97019.06;5205059;28;20702;-60
2021/05/07 00:54:46;;;;;;;2.23;2.13;;;8.00;99.90;;;8.80;94.94;97021.78;5205466;28;20225;-62
2021/05/07 00:57:18;;;;;;;2.77;2.67;;;8.00;99.90;;;8.76;95.84;97018.19;5204401;28;20220;-61
2021/05/07 00:59:50;;;;;;;2.53;2.43;;;8.00;99.90;;;8.74;96.75;97018.91;5205871;28;20579;-61
2021/05/07 01:02:22;;;;;;;2.17;2.07;;;7.90;99.90;;;8.68;96.58;97026.25;5204807;28;20224;-61
2021/05/07 01:04:56;;;;;;;2.30;2.20;;;7.90;99.90;;;8.62;96.91;97028.50;5204373;28;20305;-59
2021/05/07 01:07:28;;;;;;;2.90;2.70;;;7.90;99.90;;;8.53;96.29;97023.81;5205131;28;20228;-60
2021/05/07 01:10:02;;;;;;;2.80;2.60;;;7.90;99.90;;;8.48;96.72;97023.56;5204392;28;20201;-60
2021/05/07 01:12:35;;;;;;;2.70;2.60;;;7.80;99.90;;;8.39;97.10;97025.66;5205055;28;20627;-61
2021/05/07 01:15:11;;;;;;;2.87;2.77;;;7.70;99.90;;;8.34;97.38;97019.41;5205023;28;20191;-61
2021/05/07 01:17:45;;;;;;;2.77;2.67;;;7.70;99.90;;;8.33;98.19;97022.75;5204441;28;20308;-61
2021/05/07 01:20:21;;;;;;;2.80;2.70;;;7.70;99.90;;;8.25;97.57;97018.94;5204829;28;20196;-60
2021/05/07 01:22:55;;;;;;;2.67;2.57;;;7.60;99.90;;;8.25;98.61;97029.09;5204939;28;20197;-60
2021/05/07 01:25:30;;;;;;;3.00;2.80;;;7.60;99.90;;;8.19;98.68;97034.75;5204556;28;20217;-60
2021/05/07 01:28:06;;;;;;;3.10;2.90;;;7.60;99.90;;;8.23;98.77;97035.78;5205092;28;20189;-60
2021/05/07 01:30:41;;;;;;;2.93;2.73;;;7.50;99.90;;;8.20;99.41;97028.84;5205381;28;20198;-59
2021/05/07 01:33:14;;;;;;;2.90;2.80;;;7.50;99.90;;;8.20;99.72;97035.63;5210496;28;20194;-57
2021/05/07 01:35:49;;;;;;;3.43;3.23;;;7.50;99.90;;;8.12;99.06;97043.72;5211502;28;20215;-58
2021/05/07 01:38:22;;;;;;;2.77;2.67;;;7.50;99.90;;;8.09;99.44;97041.00;5211101;28;20219;-57
2021/05/07 01:40:54;;;;;;;3.20;3.10;;;7.50;99.90;;;8.09;99.83;97035.91;5211644;28;20198;-59
2021/05/07 01:43:26;;;;;;;2.90;2.73;;;7.40;99.90;;;8.15;100.00;97042.13;5211395;28;20204;-59
2021/05/07 01:45:59;;;;;;;2.83;2.73;;;7.40;99.90;;;8.13;100.00;97045.47;5210951;28;20243;-60
2021/05/07 01:48:31;;;;;;;3.33;3.10;;;7.50;99.90;;;8.07;100.00;97046.84;5211310;28;20201;-59
2021/05/07 01:51:08;;;;;;;3.40;3.10;;;7.40;99.90;;;8.05;100.00;97051.84;5210481;28;20202;-59
2021/05/07 01:53:40;;;;;;;3.07;2.87;;;7.40;99.90;;;8.06;100.00;97051.03;5210712;28;20619;-59
2021/05/07 01:56:12;;;;;;;3.10;2.90;;;7.40;99.90;;;8.10;100.00;97054.63;5211126;28;20243;-58
2021/05/07 01:58:45;;;;;;;3.47;3.27;;;7.40;99.90;;;7.99;100.00;97051.50;5206509;28;20198;-58
2021/05/07 02:01:17;;;;;;;3.17;2.97;;;7.30;99.90;;;7.91;100.00;97060.38;5202869;28;20198;-57
2021/05/07 02:03:49;;;;;;;3.13;3.00;;;7.30;99.90;;;7.87;100.00;97058.50;5208498;28;20221;-58
2021/05/07 02:06:22;;;;;;;3.40;3.20;;;7.30;99.90;;;7.85;100.00;97067.69;5209951;28;20233;-59
2021/05/07 02:08:54;;;;;;;3.20;3.00;;;7.30;99.90;;;7.79;100.00;97067.38;5210669;28;20666;-58
2021/05/07 02:11:26;;;;;;;3.40;3.20;;;7.20;99.90;;;7.81;100.00;97070.84;5210235;28;20204;-58
2021/05/07 02:14:05;;;;;;;3.33;3.13;;;7.20;99.90;;;7.82;100.00;97082.78;5210092;28;20190;-59
2021/05/07 02:16:37;;;;;;;3.90;3.60;;;7.20;99.90;;;7.79;100.00;97075.00;5210899;28;20328;-59
2021/05/07 02:19:09;;;;;;;3.30;3.10;;;7.20;99.90;;;7.80;100.00;97072.53;5210829;28;20236;-58
2021/05/07 02:21:42;;;;;;;3.23;3.03;;;7.20;99.90;;;7.77;100.00;97079.13;5210872;28;20194;-59
2021/05/07 02:24:14;;;;;;;2.83;2.63;;;7.10;99.90;;;7.75;100.00;97075.59;5210934;28;20595;-60
2021/05/07 02:26:46;;;;;;;3.77;3.57;;;7.10;99.90;;;7.72;100.00;97075.44;5210964;28;20309;-60
2021/05/07 02:29:18;;;;;;;3.10;3.00;;;7.00;99.90;;;7.74;100.00;97086.59;5210560;28;20198;-59
2021/05/07 02:31:50;;;;;;;2.90;2.77;;;7.00;99.90;;;7.71;100.00;97088.94;5210432;28;20343;-56
2021/05/07 02:34:23;;;;;;;2.87;2.77;;;7.10;99.90;;;7.73;100.00;97083.16;5211220;28;20190;-58
2021/05/07 02:36:56;;;;;;;3.13;2.93;;;7.10;99.90;;;7.68;100.00;97082.91;5210355;28;20296;-59
2021/05/07 02:39:28;;;;;;;3.00;2.90;;;7.10;99.90;;;7.67;100.00;97077.75;5210475;28;20202;-58
2021/05/07 02:42:00;;;;;;;2.50;2.40;;;7.00;99.90;;;7.64;100.00;97086.06;5210640;28;20684;-59
2021/05/07 02:44:32;;;;;;;3.97;3.00;;;7.00;99.90;;;7.66;100.00;97087.00;5206736;28;20222;-60
2021/05/07 02:47:04;;;;;;;3.03;2.83;;;7.00;99.90;;;7.65;100.00;97090.38;5207653;28;20218;-60
2021/05/07 02:49:37;;;;;;;2.93;2.73;;;7.00;99.90;;;7.65;100.00;97092.03;5207780;28;20206;-58
2021/05/07 02:52:10;;;;;;;3.10;2.90;;;7.00;99.90;;;7.66;100.00;97087.00;5207445;28;20564;-59
2021/05/07 02:54:42;;;;;;;2.80;2.70;;;7.00;99.90;;;7.66;100.00;97083.59;5207117;28;20198;-60
2021/05/07 02:57:14;;;;;;;3.07;2.97;;;7.00;99.90;;;7.62;100.00;97080.03;5207749;28;20224;-58
2021/05/07 02:59:46;;;;;;;2.83;2.70;;;6.90;99.90;;;7.60;100.00;97084.13;5207772;28;20654;-60
2021/05/07 03:02:18;;;;;;;2.93;2.70;;;6.90;99.90;;;7.57;100.00;97090.72;5207307;28;20193;-59
2021/05/07 03:04:51;;;;;;;2.90;2.70;;;6.80;99.90;;;7.55;100.00;97080.44;5206954;28;20226;-59
2021/05/07 03:07:24;;;;;;;2.73;2.60;;;6.80;99.90;;;7.55;100.00;97088.06;5207570;28;20228;-58
2021/05/07 03:09:56;;;;;;;2.87;2.67;;;6.90;99.90;;;7.53;100.00;97089.69;5207225;28;20202;-61
2021/05/07 03:12:28;;;;;;;3.00;2.90;;;6.80;99.90;;;7.55;100.00;97093.16;5206913;28;20688;-60
2021/05/07 03:15:00;;;;;;;3.40;3.10;;;6.90;99.90;;;7.55;100.00;97095.72;5205709;28;20657;-61
2021/05/07 03:17:32;;;;;;;3.13;2.93;;;6.80;99.90;;;7.56;100.00;97094.94;5206830;28;20226;-59
2021/05/07 03:20:06;;;;;;;3.23;3.03;;;6.90;99.90;;;7.56;100.00;97101.69;5207596;28;20232;-57
2021/05/07 03:22:39;;;;;;;3.17;2.97;;;6.80;99.90;;;7.57;100.00;97099.22;5205905;28;20293;-58
2021/05/07 03:25:13;;;;;;;3.50;3.20;;;6.90;99.90;;;7.55;100.00;97098.25;5206912;28;20218;-60
2021/05/07 03:27:45;;;;;;;3.27;3.07;;;6.90;99.90;;;7.55;100.00;97093.16;5206626;28;20220;-56
2021/05/07 03:30:18;;;;;;;3.73;3.43;;;6.80;99.90;;;7.56;100.00;97100.03;5207153;28;20206;-58
2021/05/07 03:32:50;;;;;;;3.30;3.10;;;6.90;99.90;;;7.54;100.00;97100.72;5206229;28;20288;-58
2021/05/07 03:35:22;;;;;;;4.27;3.97;;;6.80;99.90;;;7.51;100.00;97098.88;5206266;28;20193;-58
2021/05/07 03:37:55;;;;;;;3.80;3.60;;;6.80;99.90;;;7.50;100.00;97101.31;5206000;28;20223;-61
2021/05/07 03:40:27;;;;;;;4.07;3.67;;;6.80;99.90;;;7.51;100.00;97106.50;5206617;28;20626;-59
2021/05/07 03:42:59;;;;;;;3.93;3.63;;;6.80;99.90;;;7.54;100.00;97111.78;5206405;28;20201;-57
2021/05/07 03:45:31;;;;;;;3.67;3.47;;;6.90;99.90;;;7.52;100.00;97117.56;5206229;28;20222;-56
2021/05/07 03:48:14;;;;;;;4.47;4.17;;;6.80;99.90;;;7.52;100.00;97118.41;5206888;28;20682;-57
2021/05/07 03:50:48;;;;;;;3.93;3.53;;;6.80;99.90;;;7.52;100.00;97118.41;5206707;28;20194;-59
2021/05/07 03:53:21;;;;;;;3.53;3.33;;;6.80;99.90;;;7.54;100.00;97114.31;5206301;28;20208;-57
2021/05/07 03:55:57;;;;;;;3.70;3.40;;;6.80;99.90;;;7.53;100.00;97120.19;5206075;28;20210;-57
2021/05/07 03:58:29;;;;;;;3.93;3.63;;;6.80;99.90;;;7.53;100.00;97127.81;5205893;28;20209;-55
2021/05/07 04:01:01;;;;;;;3.67;3.37;;;6.80;99.90;;;7.50;100.00;97130.19;5206060;28;20665;-55
2021/05/07 04:03:33;;;;;;;3.87;3.67;;;6.80;99.90;;;7.48;100.00;97131.75;5206137;28;20229;-55
2021/05/07 04:06:08;;;;;;;4.50;4.10;;;6.80;99.90;;;7.50;100.00;97130.19;5206025;28;20641;-58
2021/05/07 04:08:42;;;;;;;3.97;3.67;;;6.80;99.90;;;7.49;100.00;97138.59;5206038;28;20204;-57
2021/05/07 04:11:23;;;;;;;3.93;3.63;;;6.80;99.90;;;7.51;100.00;97144.66;5205885;28;20202;-60
2021/05/07 04:13:55;;;;;;;4.23;3.93;;;6.80;99.90;;;7.52;100.00;97143.84;5205847;28;20198;-57
2021/05/07 04:16:27;;;;;;;3.80;3.60;;;6.80;99.90;;;7.46;100.00;97148.59;5205951;28;20230;-54
2021/05/07 04:18:59;;;;;;;3.70;3.50;;;6.70;99.90;;;7.47;100.00;97157.09;5205915;28;20197;-58
2021/05/07 04:21:32;;;;;;;4.10;3.80;;;6.70;99.90;;;7.45;100.00;97162.09;5205373;28;20197;-59
2021/05/07 04:24:06;;;;;;;4.13;3.83;;;6.70;99.90;;;7.41;100.00;97167.78;5206138;28;20233;-60
2021/05/07 04:26:38;;;;;;;4.10;3.90;;;6.70;99.90;;;7.41;100.00;97165.25;5205033;28;20228;-57
2021/05/07 04:29:10;;;;;;;4.70;4.40;;;6.70;99.90;;;7.45;100.00;97177.34;5206141;28;20209;-60
2021/05/07 04:31:42;;;;;;;4.20;3.70;;;6.70;99.90;;;7.46;100.00;97174.00;5205148;28;20194;-60
2021/05/07 04:34:14;;;;;;;4.30;3.90;;;6.70;99.90;;;7.46;100.00;97184.19;5205590;28;20190;-61
2021/05/07 04:36:46;;;;;;;4.50;4.10;;;6.70;99.90;;;7.47;100.00;97179.97;5205576;28;20225;-59
2021/05/07 04:39:19;;;;;;;4.60;4.30;;;6.80;99.90;;;7.45;100.00;97187.53;5206024;28;20329;-56
2021/05/07 04:41:51;;;;;;;4.93;4.53;;;6.70;99.90;;;7.44;100.00;97186.66;5205187;28;20190;-61
2021/05/07 04:44:23;;;;;;;4.87;4.47;;;6.70;99.90;;;7.47;100.00;97192.69;5205385;28;20615;-60
2021/05/07 04:46:55;;;;;;;5.60;5.20;;;6.80;99.90;;;7.46;100.00;97196.91;5205275;28;20228;-57
2021/05/07 04:49:27;;;;;;;5.50;5.03;;;6.80;99.90;;;7.44;100.00;97195.94;5205240;28;20202;-60
2021/05/07 04:51:59;;;;;;;5.90;5.50;;;6.70;99.90;;;7.49;100.00;97199.63;5205092;28;20586;-58
2021/05/07 04:54:33;;;;;;;5.83;5.43;;;6.70;99.90;;;7.51;100.00;97205.69;5205389;28;20518;-58
2021/05/07 04:57:06;;;;;;;5.70;5.30;;;6.70;99.90;;;7.52;100.00;97214.16;5204043;28;20225;-55
2021/05/07 04:59:38;;;;;;;5.90;5.50;;;6.70;99.90;;;7.50;100.00;97214.09;5205699;28;20319;-57
2021/05/07 05:02:10;;;;;;;6.17;5.77;;;6.70;99.90;;;7.45;100.00;97215.50;5204880;28;20698;-56
2021/05/07 05:04:42;;;;;;;5.50;5.10;;;6.70;99.90;;;7.45;100.00;97220.56;5204848;28;20222;-56
2021/05/07 05:07:14;;;;;;;5.67;5.27;;;6.60;99.90;;;7.40;100.00;97229.59;5204017;28;20218;-59
2021/05/07 05:09:47;;;;;;;5.30;4.90;;;6.60;99.90;;;7.31;100.00;97234.13;5201789;28;20216;-60
2021/05/07 05:12:19;;;;;;;6.27;5.87;;;6.60;99.90;;;7.25;100.00;97229.56;5204529;28;20198;-62
2021/05/07 05:14:52;;;;;;;5.80;5.40;;;6.50;99.90;;;7.12;100.00;97240.66;5205725;28;20683;-64
2021/05/07 05:17:24;;;;;;;6.47;5.97;;;6.40;99.90;;;7.06;100.00;97245.38;5204179;28;20222;-63
2021/05/07 05:19:56;;;;;;;6.87;6.27;;;6.40;99.90;;;7.09;100.00;97243.00;5204162;28;20206;-62
2021/05/07 05:22:28;;;;;;;6.57;6.07;;;6.40;99.90;;;7.06;100.00;97253.00;5204913;28;20677;-59
2021/05/07 05:25:05;;;;;;;5.90;5.50;;;6.30;99.90;;;6.98;100.00;97254.19;5204450;28;20213;-58
2021/05/07 05:27:37;;;;;;;6.20;5.80;;;6.30;99.90;;;7.02;100.00;97260.34;5204997;28;20267;-58
2021/05/07 05:30:11;;;;;;;6.90;6.40;;;6.20;99.90;;;7.14;100.00;97261.97;5204335;28;20194;-58
2021/05/07 05:32:43;;;;;;;6.33;5.90;;;6.40;99.90;;;7.10;100.00;97270.19;5204756;28;20594;-60
2021/05/07 05:35:16;;;;;;;7.63;6.93;;;6.30;99.90;;;6.98;100.00;97277.03;5204314;28;20205;-61
2021/05/07 05:37:48;;;;;;;6.57;6.07;;;6.30;99.90;;;6.97;100.00;97280.38;5204781;28;20256;-59
2021/05/07 05:40:21;;;;;;;6.87;6.27;;;6.30;99.90;;;6.95;100.00;97285.38;5204331;28;20198;-60
2021/05/07 05:42:53;;;;;;;6.83;6.27;;;6.30;99.90;;;6.94;100.00;97282.75;5204379;28;20197;-59
2021/05/07 05:45:25;;;;;;;6.53;6.03;;;6.20;99.90;;;6.97;100.00;97282.94;5204780;28;20214;-56
2021/05/07 05:48:02;;;;;;;7.13;6.53;;;6.30;99.90;;;7.02;100.00;97285.75;5204494;28;20194;-60
2021/05/07 05:50:34;;;;;;;7.43;6.83;;;6.30;99.90;;;7.07;100.00;97294.50;5204767;28;20578;-58
2021/05/07 05:53:07;;;;;;;6.80;6.27;;;6.40;99.90;;;7.09;100.00;97293.81;5202764;28;20200;-57
2021/05/07 05:55:40;;;;;;;7.03;6.37;;;6.40;99.90;;;7.14;100.00;97296.66;5203779;28;20194;-57
2021/05/07 05:58:12;;;;;;;7.60;7.00;;;6.40;99.90;;;7.14;100.00;97305.16;5204633;28;20210;-56
2021/05/07 06:00:44;;;;;;;7.00;6.40;;;6.40;99.90;;;7.22;100.00;97305.63;5204327;28;20193;-58
2021/05/07 06:03:16;;;;;;;7.30;6.70;;;6.50;99.90;;;7.23;100.00;97303.16;5203516;28;20204;-54
2021/05/07 06:05:48;;;;;;;6.90;6.30;;;6.50;99.90;;;7.23;100.00;97302.28;5203685;28;20269;-57
2021/05/07 06:08:22;;;;;;;7.00;6.40;;;6.50;99.90;;;7.23;100.00;97308.25;5204213;28;20281;-56
2021/05/07 06:10:56;;;;;;;6.73;6.13;;;6.50;99.90;;;7.25;100.00;97310.03;5203927;28;20194;-57
2021/05/07 06:13:28;;;;;;;7.90;7.10;;;6.50;99.90;;;7.29;100.00;97320.47;5203657;28;20292;-60
2021/05/07 06:16:00;;;;;;;7.93;7.20;;;6.50;99.90;;;7.29;100.00;97314.50;5204630;28;20270;-58
2021/05/07 06:18:32;;;;;;;7.80;7.10;;;6.60;99.90;;;7.28;100.00;97316.16;5207647;28;20305;-58
2021/05/07 06:21:04;;;;;;;9.00;8.20;;;6.50;99.90;;;7.35;100.00;97317.41;5207768;28;20194;-57
2021/05/07 06:23:37;;;;;;;8.03;7.27;;;6.60;99.90;;;7.38;100.00;97332.84;5207132;28;20264;-60
2021/05/07 06:26:09;;;;;;;7.47;6.77;;;6.60;99.90;;;7.32;100.00;97327.41;5207048;28;20305;-57
2021/05/07 06:28:41;;;;;;;8.23;7.53;;;6.60;99.90;;;7.32;100.00;97327.41;5206918;28;20589;-58
2021/05/07 06:31:13;;;;;;;8.10;7.40;;;6.60;99.90;;;7.35;100.00;97337.75;5208259;28;20202;-59
2021/05/07 06:33:45;;;;;;;8.90;7.80;;;6.60;99.90;;;7.36;100.00;97344.59;5207935;28;20576;-56
2021/05/07 06:36:20;;;;;;;7.97;7.27;;;6.60;99.90;;;7.34;100.00;97347.03;5208146;28;20256;-57
2021/05/07 06:38:52;;;;;;;7.93;7.23;;;6.60;99.90;;;7.33;100.00;97331.72;5207865;28;20193;-57
2021/05/07 06:41:25;;;;;;;9.73;8.73;;;6.60;99.90;;;7.39;100.00;97332.94;5206800;28;20206;-57
2021/05/07 06:43:57;;;;;;;9.07;8.23;;;6.60;99.90;;;7.42;100.00;97339.88;5208173;28;20206;-56
2021/05/07 06:46:29;;;;;;;9.53;8.40;;;6.70;99.90;;;7.47;100.00;97340.16;5207519;28;20599;-56
2021/05/07 06:49:01;;;;;;;8.97;8.03;;;6.70;99.90;;;7.53;100.00;97332.91;5207648;28;20201;-58
2021/05/07 06:51:38;;;;;;;9.93;8.93;;;6.80;99.90;;;7.62;100.00;97336.88;5206410;28;20575;-59
2021/05/07 06:54:10;;;;;;;9.03;8.13;;;6.90;99.90;;;7.70;100.00;97342.44;5205014;28;20198;-60
2021/05/07 06:56:43;;;;;;;10.53;9.03;;;6.90;99.90;;;7.74;100.00;97341.81;5204838;28;20214;-59
2021/05/07 06:59:18;;;;;;;10.27;9.13;;;6.80;99.90;;;7.72;100.00;97345.03;5204911;28;20653;-57
2021/05/07 07:01:50;;;;;;;9.90;9.00;;;6.90;99.90;;;7.75;100.00;97355.41;5204995;28;20189;-58
2021/05/07 07:04:22;;;;;;;10.47;9.50;;;6.90;99.90;;;7.93;100.00;97365.81;5206256;28;20201;-57
2021/05/07 07:06:55;;;;;;;9.73;8.83;;;7.10;99.90;;;7.97;100.00;97358.44;5205810;28;20214;-57
2021/05/07 07:09:27;;;;;;;11.10;10.00;;;7.10;99.90;;;8.08;100.00;97362.47;5206254;28;20198;-59
2021/05/07 07:12:00;;;;;;;10.47;9.33;;;7.10;99.90;;;8.09;100.00;97361.69;5204669;28;20408;-58
2021/05/07 07:14:36;;;;;;;10.37;9.43;;;7.20;99.90;;;8.14;100.00;97364.50;5206100;28;20201;-59
2021/05/07 07:17:08;;;;;;;10.83;9.73;;;7.20;99.90;;;8.22;100.00;97364.97;5205416;28;20232;-59
2021/05/07 07:19:41;;;;;;;10.70;9.60;;;7.20;99.90;;;8.17;100.00;97361.28;5205160;28;20228;-61
2021/05/07 07:22:14;;;;;;;10.43;8.97;;;7.20;99.90;;;8.09;100.00;97368.44;5200252;28;20210;-59
2021/05/07 07:24:47;;;;;;;9.67;8.70;;;7.10;99.90;;;8.02;100.00;97371.44;5199379;28;20237;-59
2021/05/07 07:27:20;;;;;;;10.80;9.73;;;7.10;99.90;;;8.00;100.00;97373.00;5202525;28;20308;-57
2021/05/07 07:29:53;;;;;;;10.70;9.80;;;7.00;99.90;;;7.95;100.00;97375.28;5203622;28;20623;-59
2021/05/07 07:32:26;;;;;;;10.07;9.10;;;7.00;99.90;;;7.89;100.00;97372.38;5202132;28;20364;-59
2021/05/07 07:35:03;;;;;;;10.13;9.13;;;6.90;99.90;;;7.85;100.00;97383.16;5204752;28;20658;-59
2021/05/07 07:37:35;;;;;;;10.13;9.23;;;6.90;99.90;;;7.89;100.00;97382.53;5204247;28;20756;-58
2021/05/07 07:40:09;;;;;;;10.40;9.40;;;6.90;99.90;;;7.90;100.00;97391.94;5208557;28;20198;-61
2021/05/07 07:42:43;;;;;;;9.37;8.57;;;7.00;99.90;;;7.95;100.00;97387.13;5202347;28;20286;-61
2021/05/07 07:45:16;;;;;;;10.30;9.30;;;7.00;99.90;;;7.97;100.00;97391.50;5203414;28;20217;-60
2021/05/07 07:47:48;;;;;;;9.87;8.87;;;7.00;99.90;;;7.98;100.00;97395.81;5204549;28;20218;-59
2021/05/07 07:50:20;;;;;;;10.60;9.50;;;7.00;99.90;;;8.12;100.00;97402.59;5203343;28;20575;-61
2021/05/07 07:52:53;;;;;;;11.00;10.00;;;7.20;99.90;;;8.02;99.32;97405.41;5202794;28;20650;-60
2021/05/07 07:55:25;;;;;;;10.43;9.57;;;7.10;99.90;;;8.16;100.00;97416.41;5202440;28;20202;-60
2021/05/07 07:57:58;;;;;;;11.80;10.70;;;7.20;99.90;;;8.19;100.00;97421.66;5203827;28;20201;-60
2021/05/07 08:00:30;;;;;;;12.27;11.07;;;7.30;99.90;;;8.34;100.00;97422.56;5202914;28;20202;-60
2021/05/07 08:03:03;;;;;;;11.33;10.23;;;7.30;99.90;;;8.29;99.75;97429.03;5203997;28;20673;-58
2021/05/07 08:05:37;;;;;;;12.07;10.87;;;7.30;99.90;;;8.37;99.25;97436.25;5195636;28;20832;-57
2021/05/07 08:08:09;;;;;;;11.70;10.60;;;7.30;99.90;;;8.37;99.46;97432.03;5203915;28;20279;-58
2021/05/07 08:10:41;;;;;;;12.67;11.50;;;7.40;99.90;;;8.38;99.43;97443.97;5195395;28;20207;-56
2021/05/07 08:13:14;;;;;;;12.63;11.40;;;7.40;99.90;;;8.44;99.53;97446.94;5203104;28;20221;-53
2021/05/07 08:15:46;;;;;;;13.30;12.00;;;7.40;99.90;;;8.44;99.95;97446.94;5203774;28;20572;-58
2021/05/07 08:18:18;;;;;;;12.47;11.37;;;7.40;99.90;;;8.56;100.00;97455.28;5205265;28;20233;-60
2021/05/07 08:20:50;;;;;;;13.33;12.13;;;7.50;99.90;;;8.51;98.22;97456.69;5204601;28;20229;-58
2021/05/07 08:23:22;;;;;;;12.07;10.97;;;7.40;99.90;;;8.62;98.00;97459.00;5204479;28;20198;-58
2021/05/07 08:25:54;;;;;;;12.60;11.50;;;7.40;99.90;;;8.63;98.61;97466.69;5205893;28;20303;-59
2021/05/07 08:28:28;;;;;;;11.80;10.60;;;7.50;99.90;;;8.66;98.49;97471.09;5202471;28;20252;-60
2021/05/07 08:31:00;;;;;;;12.63;11.43;;;7.60;99.90;;;8.73;97.54;97473.22;5204965;28;20241;-61
2021/05/07 08:33:32;;;;;;;12.83;11.47;;;7.60;99.90;;;8.76;97.09;97471.72;5200557;28;20209;-59
2021/05/07 08:36:05;;;;;;;12.53;11.33;;;7.60;99.90;;;8.78;95.59;97482.91;5204510;28;20241;-58
2021/05/07 08:38:37;;;;;;;13.87;12.27;;;7.60;99.90;;;8.78;96.23;97487.09;5212880;28;20229;-60
2021/05/07 08:41:10;;;;;;;13.43;12.33;;;7.70;99.90;;;8.91;96.37;97488.69;5192751;28;20241;-62
2021/05/07 08:43:44;;;;;;;13.40;12.20;;;7.80;99.90;;;9.09;96.90;97483.75;5205231;28;20665;-58
2021/05/07 08:46:16;;;;;;;13.80;12.30;;;7.90;99.90;;;9.35;97.05;97492.84;5204237;28;20705;-58
2021/05/07 08:48:48;;;;;;;13.37;12.07;;;8.10;99.90;;;9.42;90.80;97490.75;5203604;28;20596;-59
2021/05/07 08:51:21;;;;;;;14.77;13.23;;;8.30;99.90;;;9.60;94.66;97500.19;5204581;28;20657;-61
2021/05/07 08:54:02;;;;;;;14.37;13.07;;;8.70;99.90;;;10.05;93.87;97504.34;5195930;28;20194;-58
2021/05/07 08:56:39;;;;;;;14.13;12.93;;;9.10;99.90;;;10.57;93.16;97512.22;5203975;28;20250;-61
2021/05/07 08:59:12;;;;;;;13.17;11.97;;;9.50;99.90;;;10.75;91.26;97514.81;5201542;28;20237;-61
2021/05/07 09:01:47;;;;;;;13.20;11.90;;;9.70;99.90;;;11.01;92.64;97522.91;5203516;28;20761;-60
2021/05/07 09:04:21;;;;;;;12.75;11.65;;;10.10;99.90;;;11.35;89.99;97519.47;5202308;28;20205;-56
2021/05/07 09:06:55;;;;;;;11.30;10.30;;;10.40;99.90;;;11.65;89.42;97520.06;5202321;28;20302;-61
2021/05/07 09:09:30;;;;;;;11.15;10.07;;;10.80;99.90;;;11.65;80.87;97520.94;5201945;28;20747;-61
2021/05/07 09:12:05;;;;;;;9.32;8.57;;;11.00;99.90;;;11.69;84.51;97517.69;5202972;28;20201;-61
2021/05/07 09:14:47;;;;;;;9.95;9.10;;;11.10;99.90;;;11.86;83.47;97526.19;5202544;28;20237;-57
2021/05/07 09:17:30;;;;;;;8.95;8.25;;;11.40;99.90;;;11.97;81.38;97524.16;5197638;28;20272;-58
2021/05/07 09:20:10;;;;;;;9.93;9.10;;;11.50;99.90;;;12.30;84.75;97524.78;5200931;28;20677;-59
2021/05/07 09:22:43;;;;;;;9.90;9.10;;;11.80;99.90;;;12.49;80.33;97526.47;5201947;28;20641;-58
2021/05/07 09:25:18;;;;;;;8.60;7.90;;;11.90;99.90;;;12.48;79.54;97537.56;5190484;28;20638;-55
2021/05/07 09:27:50;;;;;;;8.38;7.68;;;11.90;99.90;;;12.48;73.34;97540.13;5203653;28;20245;-56
2021/05/07 09:30:27;;;;;;;8.20;7.50;;;11.90;99.90;;;12.47;75.50;97538.34;5204529;28;20206;-55
2021/05/07 09:33:00;;;;;;;7.88;7.20;;;11.90;99.90;;;12.38;72.27;97546.50;5202564;28;20197;-59
2021/05/07 09:35:32;;;;;;;7.65;7.05;;;12.00;99.90;;;12.64;76.52;97539.09;5200858;28;20280;-57
2021/05/07 09:38:06;;;;;;;8.82;7.32;;;12.10;99.90;;;12.80;73.93;97545.78;5202721;28;20357;-56
2021/05/07 09:40:41;;;;;;;6.85;6.28;;;12.30;99.90;;;12.80;68.08;97553.47;5203622;28;20225;-57
2021/05/07 09:43:17;;;;;;;7.55;6.95;;;12.40;99.90;;;12.73;67.05;97561.69;5204331;28;20200;-53
2021/05/07 09:45:53;;;;;;;7.45;6.95;;;12.30;99.90;;;12.87;69.09;97552.03;5203223;28;20217;-57
2021/05/07 09:48:27;;;;;;;7.35;6.85;;;12.40;99.90;;;12.81;67.45;97561.22;5185283;28;20202;-58
2021/05/07 09:51:02;;;;;;;8.20;7.53;;;12.30;99.90;;;12.68;72.07;97558.06;5204240;28;20241;-58
2021/05/07 09:53:36;;;;;;;7.47;6.88;;;12.30;99.90;;;12.65;67.53;97578.44;5206893;28;20205;-58
2021/05/07 09:56:14;;;;;;;7.25;6.65;;;12.40;99.90;;;12.32;64.67;97568.44;5208360;28;20759;-58
2021/05/07 09:58:46;;;;;;;6.68;6.18;;;12.10;99.90;;;12.43;72.21;97572.34;5207869;28;20745;-57
2021/05/07 10:01:19;;;;;;;6.20;5.70;;;12.10;99.90;;;12.12;59.22;97581.19;5207726;28;20237;-59
2021/05/07 10:03:55;;;;;;;5.90;5.50;;;11.90;99.90;;;12.33;70.69;97575.31;5205723;28;20208;-60
2021/05/07 10:06:28;;;;;;;6.63;6.13;;;12.00;99.90;;;12.53;64.67;97584.78;5201005;28;20231;-62
2021/05/07 10:09:01;;;;;;;6.70;6.13;;;12.30;99.90;;;12.80;67.35;97585.13;5206887;28;20305;-62
2021/05/07 10:11:40;;;;;;;6.40;5.85;;;12.50;99.90;;;12.79;63.33;97587.59;5200581;28;20205;-60
2021/05/07 10:14:14;;;;;;;6.07;5.55;;;12.40;99.90;;;12.53;60.59;97604.41;5206149;28;20693;-59
2021/05/07 10:16:47;;;;;;;6.63;5.93;;;12.20;99.90;;;12.67;63.94;97602.47;5204087;28;20248;-57
2021/05/07 10:19:19;;;;;;;6.32;5.82;;;12.30;99.90;;;12.72;61.41;97608.69;5205760;28;20198;-59
2021/05/07 10:21:52;;;;;;;6.18;5.60;;;12.30;99.90;;;12.73;61.76;97602.72;5205247;28;20629;-58
2021/05/07 10:24:24;;;;;;;6.25;5.75;;;12.40;99.90;;;12.97;66.44;97602.94;5206419;28;20198;-56
2021/05/07 10:26:56;;;;;;;6.47;6.00;;;12.60;99.90;;;13.09;62.00;97616.28;5202497;28;20641;-58
2021/05/07 10:29:29;;;;;;;6.05;5.57;;;12.60;99.90;;;13.05;60.15;97611.84;5200343;28;20238;-58
2021/05/07 10:32:03;;;;;;;6.40;5.90;;;12.50;99.90;;;13.25;62.64;97610.16;5202307;28;20356;-57
2021/05/07 10:34:42;;;;;;;7.25;6.28;;;12.70;99.90;;;13.52;55.58;97606.19;5199241;28;20206;-57
2021/05/07 10:37:15;;;;;;;5.25;4.80;;;13.10;99.90;;;13.59;55.90;97619.25;5203943;28;20240;-54
2021/05/07 10:39:53;;;;;;;5.30;4.90;;;13.10;99.90;;;13.56;56.34;97619.13;5204443;28;20278;-57
2021/05/07 10:42:25;;;;;;;5.53;5.13;;;13.00;99.90;;;13.56;54.13;97616.56;5195873;28;20201;-57
2021/05/07 10:44:58;;;;;;;5.88;5.47;;;12.80;99.90;;;13.61;55.65;97620.22;5205999;28;20890;-54
2021/05/07 10:47:36;;;;;;;5.78;5.28;;;12.80;99.90;;;13.58;57.03;97638.06;5206048;28;20310;-59
2021/05/07 10:50:14;;;;;;;5.63;5.22;;;12.80;99.90;;;13.45;53.51;97635.00;5205183;28;20233;-61